createdAt,value
2023-07-19T00:00:30.742Z,64.77
2023-07-19T00:01:30.883Z,64.88
2023-07-19T00:02:30.881Z,64.69
2023-07-19T00:03:30.911Z,64.68
2023-07-19T00:04:30.920Z,64.85
2023-07-19T00:05:30.944Z,64.88
2023-07-19T00:06:31.000Z,64.37
2023-07-19T00:07:31.103Z,63.77
2023-07-19T00:08:31.055Z,63.56
2023-07-19T00:09:31.059Z,63.51
2023-07-19T00:10:31.117Z,63.75
2023-07-19T00:11:31.156Z,63.86
2023-07-19T00:12:36.392Z,63.87
2023-07-19T00:13:32.208Z,63.91
2023-07-19T00:14:31.197Z,63.96
2023-07-19T00:15:31.210Z,63.74
2023-07-19T00:16:31.216Z,63.42
2023-07-19T00:17:31.197Z,63.64
2023-07-19T00:18:31.180Z,63.93
2023-07-19T00:19:31.171Z,64.20
2023-07-19T00:20:31.196Z,64.29
2023-07-19T00:21:31.167Z,64.35
2023-07-19T00:22:31.161Z,64.29
2023-07-19T00:23:31.201Z,64.13
2023-07-19T00:24:31.272Z,64.20
2023-07-19T00:25:31.344Z,64.13
2023-07-19T00:26:31.381Z,64.38
2023-07-19T00:27:31.409Z,64.45
2023-07-19T00:28:31.448Z,64.26
2023-07-19T00:29:31.497Z,64.38
2023-07-19T00:30:31.574Z,63.92
2023-07-19T00:31:31.651Z,63.81
2023-07-19T00:32:31.782Z,63.30
2023-07-19T00:33:31.705Z,63.31
2023-07-19T00:34:31.820Z,63.46
2023-07-19T00:35:31.794Z,63.95
2023-07-19T00:36:31.829Z,64.05
2023-07-19T00:37:31.900Z,63.50
2023-07-19T00:38:31.945Z,64.05
2023-07-19T00:39:31.977Z,63.84
2023-07-19T00:40:31.989Z,63.77
2023-07-19T00:41:32.024Z,63.85
2023-07-19T00:42:32.010Z,63.78
2023-07-19T00:43:32.019Z,63.96
2023-07-19T00:44:32.083Z,63.92
2023-07-19T00:45:32.037Z,63.85
2023-07-19T00:46:32.152Z,63.75
2023-07-19T00:47:32.133Z,64.10
2023-07-19T00:48:32.122Z,64.61
2023-07-19T00:49:32.162Z,64.73
2023-07-19T00:50:32.152Z,64.83
2023-07-19T00:51:32.149Z,64.85
2023-07-19T00:52:32.151Z,64.92
2023-07-19T00:53:32.155Z,64.60
2023-07-19T00:54:32.151Z,64.56
2023-07-19T00:55:32.232Z,64.42
2023-07-19T00:56:32.310Z,64.02
2023-07-19T00:57:32.306Z,64.18
2023-07-19T00:58:32.367Z,64.18
2023-07-19T00:59:32.351Z,64.12
2023-07-19T01:00:32.394Z,64.53
2023-07-19T01:01:32.474Z,64.66
2023-07-19T01:02:32.456Z,64.53
2023-07-19T01:03:32.560Z,64.82
2023-07-19T01:04:32.604Z,64.88
2023-07-19T01:05:32.657Z,64.92
2023-07-19T01:06:32.723Z,65.08
2023-07-19T01:07:32.783Z,65.05
2023-07-19T01:08:32.845Z,64.93
2023-07-19T01:09:32.855Z,64.42
2023-07-19T01:10:32.885Z,64.51
2023-07-19T01:11:32.879Z,64.63
2023-07-19T01:12:32.886Z,64.70
2023-07-19T01:13:32.941Z,65.05
2023-07-19T01:14:32.990Z,65.23
2023-07-19T01:15:33.073Z,65.38
2023-07-19T01:16:33.218Z,65.48
2023-07-19T01:17:33.245Z,65.61
2023-07-19T01:18:33.211Z,65.48
2023-07-19T01:19:33.254Z,65.40
2023-07-19T01:20:33.332Z,65.30
2023-07-19T01:21:33.714Z,65.24
2023-07-19T01:22:33.467Z,65.17
2023-07-19T01:23:33.368Z,65.26
2023-07-19T01:24:33.422Z,65.30
2023-07-19T01:25:33.446Z,65.33
2023-07-19T01:26:33.474Z,65.16
2023-07-19T01:27:33.451Z,65.09
2023-07-19T01:28:33.528Z,65.01
2023-07-19T01:29:33.544Z,65.06
2023-07-19T01:30:33.564Z,65.09
2023-07-19T01:31:33.639Z,65.24
2023-07-19T01:32:33.608Z,65.29
2023-07-19T01:33:34.414Z,65.38
2023-07-19T01:34:33.579Z,65.45
2023-07-19T01:35:33.560Z,65.46
2023-07-19T01:36:33.589Z,65.61
2023-07-19T01:37:33.616Z,65.72
2023-07-19T01:38:33.677Z,66.19
2023-07-19T01:39:33.763Z,66.24
2023-07-19T01:40:33.781Z,66.05
2023-07-19T01:41:33.895Z,66.09
2023-07-19T01:42:33.948Z,65.91
2023-07-19T01:43:33.969Z,66.08
2023-07-19T01:44:34.013Z,65.78
2023-07-19T01:45:34.216Z,65.56
2023-07-19T01:46:34.180Z,65.38
2023-07-19T01:47:34.356Z,65.45
2023-07-19T01:48:34.312Z,65.64
2023-07-19T01:49:34.335Z,65.75
2023-07-19T01:50:34.391Z,65.90
2023-07-19T01:51:34.468Z,66.17
2023-07-19T01:52:34.769Z,66.42
2023-07-19T01:53:34.588Z,66.46
2023-07-19T01:54:34.681Z,66.59
2023-07-19T01:55:34.682Z,66.35
2023-07-19T01:56:34.756Z,66.42
2023-07-19T01:57:34.790Z,66.52
2023-07-19T01:58:34.852Z,66.65
2023-07-19T01:59:34.881Z,66.56
2023-07-19T02:00:34.937Z,66.44
2023-07-19T02:01:35.121Z,66.29
2023-07-19T02:02:35.236Z,66.15
2023-07-19T02:03:35.209Z,66.35
2023-07-19T02:04:35.355Z,66.27
2023-07-19T02:05:35.346Z,66.03
2023-07-19T02:06:35.356Z,66.08
2023-07-19T02:07:35.394Z,66.00
2023-07-19T02:08:35.479Z,66.00
2023-07-19T02:09:35.562Z,65.81
2023-07-19T02:10:35.571Z,65.73
2023-07-19T02:11:35.714Z,65.81
2023-07-19T02:12:35.700Z,65.78
2023-07-19T02:13:35.731Z,65.89
2023-07-19T02:14:35.802Z,65.88
2023-07-19T02:15:35.863Z,65.97
2023-07-19T02:16:36.206Z,65.97
2023-07-19T02:17:35.995Z,66.03
2023-07-19T02:18:36.038Z,65.87
2023-07-19T02:19:35.886Z,65.81
2023-07-19T02:20:35.846Z,65.73
2023-07-19T02:21:35.845Z,65.64
2023-07-19T02:22:35.940Z,65.78
2023-07-19T02:23:35.834Z,65.87
2023-07-19T02:24:35.821Z,66.03
2023-07-19T02:25:35.831Z,65.90
2023-07-19T02:26:35.794Z,65.93
2023-07-19T02:27:35.812Z,65.87
2023-07-19T02:28:35.830Z,65.81
2023-07-19T02:29:35.933Z,65.83
2023-07-19T02:30:36.039Z,65.74
2023-07-19T02:31:36.214Z,65.87
2023-07-19T02:32:36.115Z,65.83
2023-07-19T02:33:36.114Z,65.77
2023-07-19T02:34:36.159Z,65.81
2023-07-19T02:35:36.173Z,65.80
2023-07-19T02:36:36.175Z,65.76
2023-07-19T02:37:36.223Z,65.65
2023-07-19T02:38:36.255Z,65.57
2023-07-19T02:39:36.326Z,65.71
2023-07-19T02:40:36.366Z,65.55
2023-07-19T02:41:36.482Z,65.53
2023-07-19T02:42:36.489Z,65.49
2023-07-19T02:43:36.530Z,65.64
2023-07-19T02:44:36.687Z,65.63
2023-07-19T02:45:36.574Z,65.67
2023-07-19T02:46:36.933Z,65.79
2023-07-19T02:47:36.502Z,65.72
2023-07-19T02:48:36.481Z,65.71
2023-07-19T02:49:37.692Z,65.88
2023-07-19T02:50:36.548Z,65.88
2023-07-19T02:51:36.449Z,65.82
2023-07-19T02:52:36.439Z,65.94
2023-07-19T02:53:36.446Z,65.92
2023-07-19T02:54:36.466Z,65.94
2023-07-19T02:55:36.423Z,65.89
2023-07-19T02:56:36.417Z,66.01
2023-07-19T02:57:36.433Z,66.11
2023-07-19T02:58:36.426Z,66.10
2023-07-19T02:59:36.408Z,66.18
2023-07-19T03:00:36.403Z,66.15
2023-07-19T03:01:36.389Z,66.31
2023-07-19T03:02:36.414Z,66.27
2023-07-19T03:03:36.469Z,66.18
2023-07-19T03:04:36.356Z,66.14
2023-07-19T03:05:36.575Z,66.16
2023-07-19T03:06:36.394Z,66.36
2023-07-19T03:07:36.385Z,66.37
2023-07-19T03:08:36.349Z,66.63
2023-07-19T03:09:36.315Z,66.48
2023-07-19T03:10:36.352Z,66.12
2023-07-19T03:11:36.333Z,66.36
2023-07-19T03:12:36.312Z,66.31
2023-07-19T03:13:36.527Z,66.25
2023-07-19T03:14:36.512Z,66.45
2023-07-19T03:15:36.334Z,66.20
2023-07-19T03:16:36.323Z,66.18
2023-07-19T03:17:36.284Z,66.12
2023-07-19T03:18:36.286Z,66.29
2023-07-19T03:19:36.285Z,66.16
2023-07-19T03:20:36.286Z,66.20
2023-07-19T03:21:36.276Z,65.87
2023-07-19T03:22:36.307Z,66.03
2023-07-19T03:23:36.258Z,66.15
2023-07-19T03:24:36.245Z,66.38
2023-07-19T03:25:36.258Z,66.48
2023-07-19T03:26:36.249Z,66.51
2023-07-19T03:27:36.219Z,66.52
2023-07-19T03:28:36.241Z,66.45
2023-07-19T03:29:36.242Z,66.74
2023-07-19T03:30:36.237Z,66.92
2023-07-19T03:31:36.221Z,67.08
2023-07-19T03:32:36.278Z,66.93
2023-07-19T03:33:36.208Z,66.97
2023-07-19T03:34:36.202Z,66.96
2023-07-19T03:35:36.258Z,67.12
2023-07-19T03:36:36.257Z,67.11
2023-07-19T03:37:36.233Z,67.14
2023-07-19T03:38:36.165Z,67.25
2023-07-19T03:39:36.310Z,67.23
2023-07-19T03:40:36.154Z,67.22
2023-07-19T03:41:36.145Z,66.99
2023-07-19T03:42:36.136Z,66.77
2023-07-19T03:43:36.154Z,66.77
2023-07-19T03:44:36.169Z,66.73
2023-07-19T03:45:36.080Z,66.80
2023-07-19T03:46:36.131Z,66.68
2023-07-19T03:47:36.119Z,66.77
2023-07-19T03:48:36.085Z,66.76
2023-07-19T03:49:36.105Z,66.90
2023-07-19T03:50:36.096Z,66.94
2023-07-19T03:51:36.096Z,66.72
2023-07-19T03:52:36.031Z,66.82
2023-07-19T03:53:36.079Z,67.05
2023-07-19T03:54:36.040Z,66.72
2023-07-19T03:55:36.059Z,66.64
2023-07-19T03:56:36.058Z,66.75
2023-07-19T03:57:35.994Z,66.85
2023-07-19T03:58:36.071Z,66.74
2023-07-19T03:59:35.993Z,66.74
2023-07-19T04:00:36.005Z,66.55
2023-07-19T04:01:36.084Z,66.69
2023-07-19T04:02:35.999Z,66.87
2023-07-19T04:03:36.043Z,66.81
2023-07-19T04:04:35.997Z,66.52
2023-07-19T04:05:36.015Z,66.48
2023-07-19T04:06:36.507Z,66.41
2023-07-19T04:07:35.934Z,66.46
2023-07-19T04:08:35.940Z,66.20
2023-07-19T04:09:35.952Z,66.30
2023-07-19T04:10:35.938Z,66.54
2023-07-19T04:11:35.987Z,66.46
2023-07-19T04:12:35.940Z,66.42
2023-07-19T04:13:35.933Z,66.48
2023-07-19T04:14:35.900Z,66.48
2023-07-19T04:15:35.895Z,66.31
2023-07-19T04:16:35.948Z,66.39
2023-07-19T04:17:35.900Z,66.32
2023-07-19T04:18:35.878Z,66.58
2023-07-19T04:19:35.833Z,66.68
2023-07-19T04:20:35.881Z,66.85
2023-07-19T04:21:35.871Z,66.81
2023-07-19T04:22:35.861Z,66.79
2023-07-19T04:23:35.837Z,66.65
2023-07-19T04:24:36.906Z,66.74
2023-07-19T04:25:35.821Z,66.84
2023-07-19T04:26:35.861Z,66.98
2023-07-19T04:27:35.853Z,67.01
2023-07-19T04:28:35.845Z,67.01
2023-07-19T04:29:35.789Z,66.95
2023-07-19T04:30:35.807Z,67.04
2023-07-19T04:31:35.795Z,66.78
2023-07-19T04:32:35.925Z,66.20
2023-07-19T04:33:35.942Z,66.34
2023-07-19T04:34:35.803Z,66.59
2023-07-19T04:35:35.763Z,66.60
2023-07-19T04:36:35.913Z,66.50
2023-07-19T04:37:35.960Z,66.58
2023-07-19T04:38:36.023Z,66.64
2023-07-19T04:39:36.079Z,66.52
2023-07-19T04:40:36.149Z,66.63
2023-07-19T04:41:36.180Z,66.75
2023-07-19T04:42:36.182Z,66.79
2023-07-19T04:43:36.254Z,66.73
2023-07-19T04:44:36.265Z,66.79
2023-07-19T04:45:36.282Z,66.65
2023-07-19T04:46:36.362Z,66.56
2023-07-19T04:47:36.402Z,66.69
2023-07-19T04:48:44.037Z,66.79
2023-07-19T04:49:36.408Z,66.73
2023-07-19T04:50:36.406Z,66.26
2023-07-19T04:51:36.438Z,66.14
2023-07-19T04:52:36.368Z,66.08
2023-07-19T04:53:36.411Z,66.15
2023-07-19T04:54:36.382Z,66.28
2023-07-19T04:55:36.345Z,66.35
2023-07-19T04:56:36.363Z,66.21
2023-07-19T04:57:36.361Z,66.37
2023-07-19T04:58:36.341Z,66.80
2023-07-19T04:59:36.352Z,66.94
2023-07-19T05:02:06.385Z,67.21
2023-07-19T05:02:55.762Z,67.25
2023-07-19T05:03:55.688Z,67.12
2023-07-19T05:04:55.731Z,67.05
2023-07-19T05:05:55.700Z,66.91
2023-07-19T05:06:55.682Z,66.77
2023-07-19T05:07:55.689Z,66.78
2023-07-19T05:08:55.661Z,66.87
2023-07-19T05:09:55.678Z,66.87
2023-07-19T05:10:55.672Z,66.88
2023-07-19T05:11:55.680Z,66.68
2023-07-19T05:12:55.650Z,66.64
2023-07-19T05:13:55.612Z,66.59
2023-07-19T05:14:55.629Z,66.55
2023-07-19T05:15:55.602Z,66.57
2023-07-19T05:16:55.640Z,66.58
2023-07-19T05:17:55.673Z,66.55
2023-07-19T05:18:55.616Z,66.59
2023-07-19T05:19:55.594Z,66.56
2023-07-19T05:20:55.608Z,66.84
2023-07-19T05:21:55.592Z,66.89
2023-07-19T05:22:55.693Z,66.85
2023-07-19T05:23:55.706Z,66.95
2023-07-19T05:24:55.727Z,66.95
2023-07-19T05:25:55.766Z,66.86
2023-07-19T05:26:55.774Z,66.82
2023-07-19T05:27:55.868Z,66.80
2023-07-19T05:28:55.867Z,66.81
2023-07-19T05:29:55.918Z,66.94
2023-07-19T05:30:55.990Z,67.02
2023-07-19T05:31:56.110Z,66.94
2023-07-19T05:32:56.092Z,66.96
2023-07-19T05:33:56.147Z,67.04
2023-07-19T05:34:56.205Z,67.07
2023-07-19T05:35:56.242Z,67.28
2023-07-19T05:36:56.310Z,67.19
2023-07-19T05:37:58.601Z,67.18
2023-07-19T05:38:56.309Z,67.04
2023-07-19T05:39:56.303Z,66.78
2023-07-19T05:40:56.297Z,66.77
2023-07-19T05:41:56.286Z,66.90
2023-07-19T05:42:56.303Z,66.93
2023-07-19T05:44:09.646Z,66.84
2023-07-19T05:44:57.306Z,66.37
2023-07-19T05:45:56.292Z,66.15
2023-07-19T05:46:56.298Z,66.12
2023-07-19T05:47:56.294Z,65.92
2023-07-19T05:48:56.240Z,65.81
2023-07-19T05:49:56.253Z,65.78
2023-07-19T05:50:56.232Z,66.11
2023-07-19T05:51:56.252Z,65.89
2023-07-19T05:52:56.272Z,66.35
2023-07-19T05:53:56.217Z,66.52
2023-07-19T05:54:56.207Z,66.74
2023-07-19T05:55:56.213Z,66.60
2023-07-19T05:56:56.174Z,66.60
2023-07-19T05:57:56.199Z,66.86
2023-07-19T05:58:56.176Z,67.13
2023-07-19T06:00:03.588Z,67.10
2023-07-19T06:00:57.225Z,66.97
2023-07-19T06:01:56.234Z,66.86
2023-07-19T06:02:56.602Z,66.73
2023-07-19T06:03:56.249Z,66.91
2023-07-19T06:04:56.203Z,66.73
2023-07-19T06:05:56.129Z,66.69
2023-07-19T06:06:56.125Z,66.64
2023-07-19T06:08:01.734Z,66.80
2023-07-19T06:08:57.088Z,66.82
2023-07-19T06:09:56.109Z,67.17
2023-07-19T06:10:56.098Z,67.11
2023-07-19T06:11:56.086Z,67.10
2023-07-19T06:12:56.076Z,67.22
2023-07-19T06:13:56.068Z,67.29
2023-07-19T06:14:56.080Z,67.36
2023-07-19T06:15:56.126Z,67.20
2023-07-19T06:16:56.190Z,67.12
2023-07-19T06:17:56.264Z,67.08
2023-07-19T06:18:56.296Z,66.59
2023-07-19T06:19:56.336Z,66.40
2023-07-19T06:20:56.359Z,67.29
2023-07-19T06:21:56.394Z,67.67
2023-07-19T06:22:56.530Z,67.80
2023-07-19T06:23:56.566Z,67.64
2023-07-19T06:24:56.583Z,67.45
2023-07-19T06:25:56.636Z,67.35
2023-07-19T06:26:56.650Z,67.32
2023-07-19T06:27:56.726Z,66.61
2023-07-19T06:28:56.790Z,66.47
2023-07-19T06:29:56.838Z,66.41
2023-07-19T06:30:56.917Z,66.26
2023-07-19T06:31:56.963Z,66.55
2023-07-19T06:32:57.052Z,66.62
2023-07-19T06:33:57.156Z,66.99
2023-07-19T06:34:57.085Z,66.95
2023-07-19T06:35:57.134Z,66.97
2023-07-19T06:36:57.193Z,66.73
2023-07-19T06:37:57.213Z,66.81
2023-07-19T06:38:57.280Z,66.78
2023-07-19T06:39:57.289Z,66.74
2023-07-19T06:40:57.309Z,66.83
2023-07-19T06:41:57.348Z,66.76
2023-07-19T06:42:57.387Z,66.68
2023-07-19T06:43:57.377Z,66.27
2023-07-19T06:44:57.409Z,65.90
2023-07-19T06:45:57.412Z,66.59
2023-07-19T06:46:57.462Z,66.49
2023-07-19T06:47:57.493Z,66.82
2023-07-19T06:48:57.489Z,66.73
2023-07-19T06:49:57.494Z,67.39
2023-07-19T06:50:57.488Z,66.61
2023-07-19T06:51:57.513Z,66.85
2023-07-19T06:52:57.549Z,66.51
2023-07-19T06:54:08.972Z,66.38
2023-07-19T06:54:58.541Z,66.58
2023-07-19T06:55:57.494Z,67.00
2023-07-19T06:56:57.523Z,66.77
2023-07-19T06:57:57.531Z,66.97
2023-07-19T06:58:57.476Z,67.07
2023-07-19T06:59:57.489Z,66.91
2023-07-19T07:00:58.037Z,66.85
2023-07-19T07:01:57.494Z,66.67
2023-07-19T07:02:57.597Z,66.13
2023-07-19T07:03:57.465Z,65.65
2023-07-19T07:04:57.437Z,66.83
2023-07-19T07:05:57.457Z,65.99
2023-07-19T07:06:57.488Z,66.01
2023-07-19T07:07:57.499Z,66.19
2023-07-19T07:08:57.581Z,66.37
2023-07-19T07:09:57.595Z,66.26
2023-07-19T07:10:57.637Z,66.23
2023-07-19T07:11:57.700Z,66.31
2023-07-19T07:12:57.751Z,66.30
2023-07-19T07:13:57.731Z,66.19
2023-07-19T07:14:57.812Z,66.40
2023-07-19T07:15:57.867Z,66.56
2023-07-19T07:16:57.921Z,66.39
2023-07-19T07:17:58.006Z,66.70
2023-07-19T07:18:57.981Z,66.35
2023-07-19T07:19:59.916Z,66.02
2023-07-19T07:20:58.060Z,65.67
2023-07-19T07:21:58.061Z,65.61
2023-07-19T07:22:58.143Z,65.49
2023-07-19T07:23:58.116Z,65.50
2023-07-19T07:24:58.129Z,66.22
2023-07-19T07:25:58.135Z,66.02
2023-07-19T07:26:58.177Z,65.65
2023-07-19T07:27:58.247Z,65.60
2023-07-19T07:28:58.186Z,65.31
2023-07-19T07:29:58.240Z,65.20
2023-07-19T07:30:58.320Z,65.05
2023-07-19T07:31:58.289Z,65.28
2023-07-19T07:32:58.330Z,65.17
2023-07-19T07:33:58.323Z,65.14
2023-07-19T07:34:58.329Z,65.18
2023-07-19T07:35:58.331Z,64.89
2023-07-19T07:36:58.336Z,64.27
2023-07-19T07:37:58.404Z,63.82
2023-07-19T07:38:58.418Z,63.78
2023-07-19T07:39:58.428Z,63.84
2023-07-19T07:40:58.441Z,64.03
2023-07-19T07:41:58.509Z,64.22
2023-07-19T07:42:58.542Z,64.52
2023-07-19T07:43:58.551Z,64.95
2023-07-19T07:44:58.564Z,64.81
2023-07-19T07:45:58.613Z,64.98
2023-07-19T07:46:58.726Z,64.86
2023-07-19T07:47:58.709Z,64.93
2023-07-19T07:48:58.726Z,64.98
2023-07-19T07:49:58.778Z,65.07
2023-07-19T07:50:58.824Z,65.31
2023-07-19T07:51:58.842Z,65.14
2023-07-19T07:53:11.205Z,65.04
2023-07-19T07:53:59.895Z,65.40
2023-07-19T07:54:58.903Z,65.39
2023-07-19T07:55:58.883Z,65.04
2023-07-19T07:56:58.929Z,65.07
2023-07-19T07:57:58.928Z,65.01
2023-07-19T07:58:58.875Z,65.04
2023-07-19T07:59:58.874Z,65.22
2023-07-19T08:00:58.899Z,65.61
2023-07-19T08:01:58.889Z,65.94
2023-07-19T08:02:59.089Z,65.92
2023-07-19T08:03:59.058Z,65.84
2023-07-19T08:04:58.960Z,65.93
2023-07-19T08:05:59.029Z,66.05
2023-07-19T08:06:59.064Z,66.17
2023-07-19T08:07:59.102Z,66.02
2023-07-19T08:08:59.132Z,65.08
2023-07-19T08:09:59.190Z,65.77
2023-07-19T08:10:59.264Z,65.94
2023-07-19T08:11:59.318Z,66.14
2023-07-19T08:12:59.369Z,66.25
2023-07-19T08:13:59.420Z,66.17
2023-07-19T08:14:59.424Z,66.16
2023-07-19T08:15:59.485Z,66.11
2023-07-19T08:17:02.368Z,66.03
2023-07-19T08:17:59.547Z,65.82
2023-07-19T08:18:59.517Z,65.67
2023-07-19T08:19:59.523Z,65.66
2023-07-19T08:20:59.502Z,65.59
2023-07-19T08:21:59.490Z,65.27
2023-07-19T08:23:01.366Z,64.96
2023-07-19T08:23:59.478Z,64.45
2023-07-19T08:25:08.414Z,65.04
2023-07-19T08:26:00.492Z,64.86
2023-07-19T08:26:59.458Z,64.90
2023-07-19T08:27:59.573Z,65.13
2023-07-19T08:28:59.470Z,64.10
2023-07-19T08:29:59.453Z,64.76
2023-07-19T08:30:59.505Z,65.01
2023-07-19T08:31:59.465Z,64.44
2023-07-19T08:32:59.472Z,64.62
2023-07-19T08:33:59.437Z,65.10
2023-07-19T08:34:59.443Z,65.09
2023-07-19T08:35:59.472Z,65.12
2023-07-19T08:36:59.410Z,65.55
2023-07-19T08:37:59.408Z,65.78
2023-07-19T08:38:59.420Z,64.93
2023-07-19T08:39:59.414Z,65.24
2023-07-19T08:40:59.368Z,65.17
2023-07-19T08:41:59.387Z,65.28
2023-07-19T08:42:59.467Z,65.38
2023-07-19T08:43:59.382Z,65.43
2023-07-19T08:44:59.385Z,64.94
2023-07-19T08:45:59.390Z,65.08
2023-07-19T08:46:59.336Z,64.82
2023-07-19T08:47:59.365Z,63.74
2023-07-19T08:48:59.329Z,63.44
2023-07-19T08:49:59.370Z,63.29
2023-07-19T08:50:59.407Z,63.80
2023-07-19T08:51:59.396Z,63.03
2023-07-19T08:52:59.501Z,62.31
2023-07-19T08:53:59.511Z,62.49
2023-07-19T08:54:59.501Z,62.63
2023-07-19T08:55:59.599Z,62.95
2023-07-19T08:56:59.603Z,62.86
2023-07-19T08:57:59.652Z,63.12
2023-07-19T08:58:59.678Z,63.48
2023-07-19T08:59:59.699Z,63.92
2023-07-19T09:00:59.708Z,63.96
2023-07-19T09:01:59.753Z,64.09
2023-07-19T09:02:59.834Z,63.98
2023-07-19T09:03:59.812Z,63.65
2023-07-19T09:04:59.784Z,63.42
2023-07-19T09:05:59.797Z,63.71
2023-07-19T09:06:59.865Z,63.69
2023-07-19T09:07:59.846Z,63.83
2023-07-19T09:08:59.852Z,63.88
2023-07-19T09:09:59.850Z,64.01
2023-07-19T09:10:59.830Z,64.26
2023-07-19T09:11:59.858Z,64.29
2023-07-19T09:12:59.861Z,64.42
2023-07-19T09:13:59.844Z,64.77
2023-07-19T09:14:59.872Z,64.67
2023-07-19T09:15:59.875Z,64.42
2023-07-19T09:16:59.897Z,64.45
2023-07-19T09:17:59.949Z,64.67
2023-07-19T09:18:59.943Z,64.50
2023-07-19T09:19:59.929Z,63.80
2023-07-19T09:20:59.928Z,63.98
2023-07-19T09:21:59.990Z,63.06
2023-07-19T09:23:00.103Z,62.62
2023-07-19T09:24:00.021Z,62.91
2023-07-19T09:25:00.051Z,63.03
2023-07-19T09:26:00.092Z,63.66
2023-07-19T09:27:00.177Z,64.17
2023-07-19T09:28:00.199Z,63.33
2023-07-19T09:29:00.261Z,63.50
2023-07-19T09:30:00.323Z,64.08
2023-07-19T09:31:11.560Z,64.13
2023-07-19T09:32:01.346Z,63.57
2023-07-19T09:33:00.324Z,63.82
2023-07-19T09:34:00.273Z,63.69
2023-07-19T09:35:00.256Z,63.58
2023-07-19T09:36:00.265Z,63.01
2023-07-19T09:37:00.261Z,63.05
2023-07-19T09:38:00.308Z,62.94
2023-07-19T09:39:00.271Z,62.72
2023-07-19T09:40:00.229Z,61.95
2023-07-19T09:41:00.279Z,62.39
2023-07-19T09:42:00.211Z,62.69
2023-07-19T09:43:00.274Z,62.57
2023-07-19T09:44:00.165Z,62.11
2023-07-19T09:45:00.279Z,61.73
2023-07-19T09:46:00.429Z,61.93
2023-07-19T09:47:01.299Z,63.03
2023-07-19T09:48:00.542Z,62.08
2023-07-19T09:49:00.546Z,62.34
2023-07-19T09:50:00.621Z,62.77
2023-07-19T09:51:00.672Z,62.22
2023-07-19T09:52:00.668Z,62.52
2023-07-19T09:53:00.696Z,62.83
2023-07-19T09:54:00.740Z,63.33
2023-07-19T09:55:00.749Z,63.10
2023-07-19T09:56:00.809Z,63.01
2023-07-19T09:57:00.818Z,62.34
2023-07-19T09:58:00.823Z,62.58
2023-07-19T09:59:00.808Z,63.33
2023-07-19T10:00:00.814Z,62.33
2023-07-19T10:01:00.937Z,61.68
2023-07-19T10:02:00.928Z,62.19
2023-07-19T10:03:01.100Z,62.53
2023-07-19T10:04:00.885Z,62.83
2023-07-19T10:05:00.980Z,63.64
2023-07-19T10:06:00.918Z,63.71
2023-07-19T10:07:00.912Z,63.78
2023-07-19T10:08:00.945Z,62.36
2023-07-19T10:09:00.918Z,60.87
2023-07-19T10:10:00.948Z,60.65
2023-07-19T10:11:00.970Z,60.62
2023-07-19T10:12:00.998Z,60.91
2023-07-19T10:13:00.973Z,61.05
2023-07-19T10:14:08.656Z,60.59
2023-07-19T10:15:01.967Z,60.00
2023-07-19T10:16:00.945Z,59.65
2023-07-19T10:17:00.998Z,59.83
2023-07-19T10:18:01.255Z,59.82
2023-07-19T10:19:00.941Z,59.06
2023-07-19T10:20:00.943Z,59.17
2023-07-19T10:21:00.926Z,58.45
2023-07-19T10:22:00.896Z,58.41
2023-07-19T10:23:00.938Z,57.89
2023-07-19T10:24:00.914Z,58.40
2023-07-19T10:25:00.966Z,59.14
2023-07-19T10:26:04.283Z,58.81
2023-07-19T10:27:00.988Z,59.32
2023-07-19T10:28:00.985Z,59.17
2023-07-19T10:29:00.999Z,58.38
2023-07-19T10:30:00.941Z,58.95
2023-07-19T10:31:17.164Z,59.03
2023-07-19T10:32:04.473Z,58.82
2023-07-19T10:33:00.985Z,58.26
2023-07-19T10:34:01.404Z,57.14
2023-07-19T10:35:00.905Z,56.70
2023-07-19T10:36:00.957Z,56.70
2023-07-19T10:37:00.887Z,56.15
2023-07-19T10:38:01.599Z,56.05
2023-07-19T10:39:00.921Z,56.65
2023-07-19T10:40:00.903Z,56.78
2023-07-19T10:41:00.902Z,57.39
2023-07-19T10:42:00.905Z,56.36
2023-07-19T10:43:00.913Z,56.95
2023-07-19T10:44:02.601Z,56.83
2023-07-19T10:45:00.840Z,55.92
2023-07-19T10:46:00.875Z,55.67
2023-07-19T10:47:01.300Z,55.25
2023-07-19T10:48:00.866Z,54.27
2023-07-19T10:49:00.909Z,54.02
2023-07-19T10:50:00.847Z,54.37
2023-07-19T10:51:00.784Z,55.74
2023-07-19T10:52:00.854Z,56.46
2023-07-19T10:53:00.785Z,56.72
2023-07-19T10:54:01.006Z,55.93
2023-07-19T10:55:17.965Z,55.24
2023-07-19T10:56:01.746Z,54.17
2023-07-19T10:57:00.814Z,54.29
2023-07-19T10:58:00.740Z,55.46
2023-07-19T10:59:00.797Z,55.72
2023-07-19T11:00:00.758Z,54.80
2023-07-19T11:01:00.790Z,54.09
2023-07-19T11:02:00.812Z,53.78
2023-07-19T11:03:00.775Z,53.73
2023-07-19T11:04:00.739Z,52.96
2023-07-19T11:05:00.716Z,53.12
2023-07-19T11:06:00.762Z,52.93
2023-07-19T11:07:03.224Z,53.31
2023-07-19T11:08:00.777Z,53.10
2023-07-19T11:09:00.771Z,52.60
2023-07-19T11:10:00.781Z,52.97
2023-07-19T11:11:00.759Z,54.31
2023-07-19T11:12:00.771Z,52.54
2023-07-19T11:13:00.762Z,52.32
2023-07-19T11:14:00.742Z,52.71
2023-07-19T11:15:00.724Z,52.65
2023-07-19T11:16:00.720Z,52.74
2023-07-19T11:17:00.767Z,53.53
2023-07-19T11:18:00.796Z,54.62
2023-07-19T11:19:00.717Z,53.85
2023-07-19T11:20:00.727Z,54.74
2023-07-19T11:21:00.745Z,54.80
2023-07-19T11:22:00.707Z,53.71
2023-07-19T11:23:00.690Z,54.12
2023-07-19T11:24:00.738Z,53.24
2023-07-19T11:25:00.719Z,52.94
2023-07-19T11:26:00.711Z,52.93
2023-07-19T11:27:00.662Z,53.62
2023-07-19T11:28:00.657Z,54.38
2023-07-19T11:29:00.768Z,54.29
2023-07-19T11:30:00.666Z,53.60
2023-07-19T11:31:00.687Z,53.74
2023-07-19T11:32:00.632Z,52.74
2023-07-19T11:33:00.641Z,52.08
2023-07-19T11:34:00.670Z,52.09
2023-07-19T11:35:00.660Z,51.85
2023-07-19T11:36:00.619Z,50.90
2023-07-19T11:37:00.643Z,51.81
2023-07-19T11:38:00.606Z,51.63
2023-07-19T11:39:00.596Z,51.76
2023-07-19T11:40:00.576Z,50.87
2023-07-19T11:41:00.554Z,50.84
2023-07-19T11:42:00.569Z,51.77
2023-07-19T11:43:00.581Z,52.39
2023-07-19T11:44:00.596Z,51.95
2023-07-19T11:45:00.574Z,50.55
2023-07-19T11:46:00.569Z,50.60
2023-07-19T11:47:00.578Z,51.63
2023-07-19T11:48:00.633Z,52.33
2023-07-19T11:49:00.582Z,51.73
2023-07-19T11:50:00.531Z,51.06
2023-07-19T11:51:00.507Z,51.50
2023-07-19T11:52:00.517Z,51.06
2023-07-19T11:53:00.510Z,51.21
2023-07-19T11:54:00.508Z,52.39
2023-07-19T11:55:00.527Z,49.68
2023-07-19T11:56:03.072Z,49.89
2023-07-19T11:57:01.483Z,51.12
2023-07-19T11:58:00.476Z,49.80
2023-07-19T11:59:00.484Z,49.54
2023-07-19T12:00:00.463Z,49.75
2023-07-19T12:01:00.481Z,49.83
2023-07-19T12:02:00.428Z,49.25
2023-07-19T12:03:00.511Z,48.53
2023-07-19T12:04:00.541Z,48.40
2023-07-19T12:05:00.420Z,48.19
2023-07-19T12:06:00.429Z,48.87
2023-07-19T12:07:00.462Z,49.30
2023-07-19T12:08:00.495Z,49.59
2023-07-19T12:09:00.486Z,49.67
2023-07-19T12:10:00.552Z,49.53
2023-07-19T12:11:00.579Z,50.61
2023-07-19T12:12:00.532Z,51.62
2023-07-19T12:13:00.544Z,50.50
2023-07-19T12:14:00.640Z,49.90
2023-07-19T12:15:00.684Z,50.04
2023-07-19T12:16:00.716Z,49.70
2023-07-19T12:17:00.751Z,50.15
2023-07-19T12:18:00.759Z,49.12
2023-07-19T12:19:00.775Z,49.41
2023-07-19T12:20:00.774Z,50.14
2023-07-19T12:21:00.869Z,50.76
2023-07-19T12:22:00.957Z,50.34
2023-07-19T12:23:01.969Z,49.11
2023-07-19T12:24:00.885Z,48.65
2023-07-19T12:25:00.851Z,49.51
2023-07-19T12:26:00.870Z,51.60
2023-07-19T12:27:00.910Z,50.00
2023-07-19T12:28:00.854Z,49.91
2023-07-19T12:29:00.900Z,50.04
2023-07-19T12:30:03.770Z,51.79
2023-07-19T12:31:00.858Z,51.04
2023-07-19T12:32:00.857Z,49.99
2023-07-19T12:33:00.830Z,50.24
2023-07-19T12:34:00.822Z,49.86
2023-07-19T12:35:00.867Z,49.40
2023-07-19T12:36:00.787Z,50.35
2023-07-19T12:37:00.808Z,50.23
2023-07-19T12:38:00.800Z,50.38
2023-07-19T12:39:00.793Z,50.87
2023-07-19T12:40:00.757Z,51.02
2023-07-19T12:41:00.765Z,50.42
2023-07-19T12:42:00.767Z,49.89
2023-07-19T12:43:00.709Z,49.79
2023-07-19T12:44:00.779Z,50.67
2023-07-19T12:45:00.725Z,50.83
2023-07-19T12:46:00.773Z,49.66
2023-07-19T12:47:00.780Z,50.78
2023-07-19T12:48:00.797Z,51.25
2023-07-19T12:49:00.711Z,50.95
2023-07-19T12:50:00.709Z,50.24
2023-07-19T12:51:00.700Z,50.04
2023-07-19T12:52:00.712Z,50.03
2023-07-19T12:53:00.698Z,50.01
2023-07-19T12:54:00.681Z,49.88